sensor_id;sensor_type;location;lat;lon;timestamp;pressure;altitude;pressure_sealevel;temperature;humidity
1029;BME280;503;48.120;11.488;2022-09-13T00:00:28;95150.72;;;16.30;62.55
1029;BME280;503;48.120;11.488;2022-09-13T00:02:54;95148.03;;;16.30;62.75
1029;BME280;503;48.120;11.488;2022-09-13T00:05:19;95146.03;;;16.27;62.78
1029;BME280;503;48.120;11.488;2022-09-13T00:07:44;95145.16;;;16.23;62.88
1029;BME280;503;48.120;11.488;2022-09-13T00:10:10;95142.03;;;16.21;63.00
1029;BME280;503;48.120;11.488;2022-09-13T00:12:35;95147.72;;;16.19;63.12
1029;BME280;503;48.120;11.488;2022-09-13T00:15:00;95139.22;;;16.17;63.16
1029;BME280;503;48.120;11.488;2022-09-13T00:17:25;95140.34;;;16.16;63.05
1029;BME280;503;48.120;11.488;2022-09-13T00:19:51;95133.78;;;16.14;63.03
1029;BME280;503;48.120;11.488;2022-09-13T00:22:16;95132.88;;;16.09;63.06
1029;BME280;503;48.120;11.488;2022-09-13T00:24:41;95133.22;;;16.08;63.17
1029;BME280;503;48.120;11.488;2022-09-13T00:27:06;95127.09;;;16.07;63.34
1029;BME280;503;48.120;11.488;2022-09-13T00:29:32;95121.25;;;16.05;63.43
1029;BME280;503;48.120;11.488;2022-09-13T00:31:57;95113.09;;;16.02;63.60
1029;BME280;503;48.120;11.488;2022-09-13T00:34:22;95109.31;;;16.03;63.41
1029;BME280;503;48.120;11.488;2022-09-13T00:36:47;95110.88;;;16.04;63.67
1029;BME280;503;48.120;11.488;2022-09-13T00:39:12;95113.56;;;16.04;63.41
1029;BME280;503;48.120;11.488;2022-09-13T00:41:38;95113.09;;;16.02;63.87
1029;BME280;503;48.120;11.488;2022-09-13T00:44:03;95111.75;;;16.08;63.72
1029;BME280;503;48.120;11.488;2022-09-13T00:47:02;95117.00;;;16.04;63.78
1029;BME280;503;48.120;11.488;2022-09-13T00:49:27;95121.59;;;16.04;64.16
1029;BME280;503;48.120;11.488;2022-09-13T00:51:54;95119.03;;;16.07;63.91
1029;BME280;503;48.120;11.488;2022-09-13T00:54:21;95113.91;;;16.02;63.76
1029;BME280;503;48.120;11.488;2022-09-13T00:56:49;95113.44;;;16.00;63.79
1029;BME280;503;48.120;11.488;2022-09-13T00:59:18;95101.69;;;16.05;63.51
1029;BME280;503;48.120;11.488;2022-09-13T01:01:47;95104.38;;;16.05;63.62
1029;BME280;503;48.120;11.488;2022-09-13T01:04:13;95099.69;;;16.02;63.82
1029;BME280;503;48.120;11.488;2022-09-13T01:06:39;95096.44;;;15.96;63.86
1029;BME280;503;48.120;11.488;2022-09-13T01:09:05;95091.44;;;15.95;63.76
1029;BME280;503;48.120;11.488;2022-09-13T01:11:38;95094.47;;;15.93;63.90
1029;BME280;503;48.120;11.488;2022-09-13T01:14:05;95083.72;;;15.93;63.70
1029;BME280;503;48.120;11.488;2022-09-13T01:16:31;95079.94;;;15.94;63.81
1029;BME280;503;48.120;11.488;2022-09-13T01:18:57;95071.88;;;15.94;63.79
1029;BME280;503;48.120;11.488;2022-09-13T01:21:37;95079.16;;;15.94;63.89
1029;BME280;503;48.120;11.488;2022-09-13T01:37:07;95066.88;;;15.80;64.24
1029;BME280;503;48.120;11.488;2022-09-13T01:39:50;95068.44;;;15.81;64.26
1029;BME280;503;48.120;11.488;2022-09-13T01:53:38;95072.41;;;16.00;63.75
1029;BME280;503;48.120;11.488;2022-09-13T02:03:32;95069.00;;;15.87;64.28
1029;BME280;503;48.120;11.488;2022-09-13T02:06:02;95059.72;;;15.84;64.29
1029;BME280;503;48.120;11.488;2022-09-13T02:08:34;95064.41;;;15.88;63.89
1029;BME280;503;48.120;11.488;2022-09-13T02:11:12;95063.06;;;15.81;64.00
1029;BME280;503;48.120;11.488;2022-09-13T02:16:32;95058.16;;;15.83;63.97
1029;BME280;503;48.120;11.488;2022-09-13T02:19:02;95066.56;;;15.82;63.76
1029;BME280;503;48.120;11.488;2022-09-13T02:21:31;95073.72;;;15.78;64.13
1029;BME280;503;48.120;11.488;2022-09-13T02:24:04;95068.09;;;15.83;64.01
1029;BME280;503;48.120;11.488;2022-09-13T02:26:31;95065.09;;;15.84;63.91
1029;BME280;503;48.120;11.488;2022-09-13T02:28:59;95069.66;;;15.84;63.98
1029;BME280;503;48.120;11.488;2022-09-13T02:31:33;95066.63;;;15.85;64.16
1029;BME280;503;48.120;11.488;2022-09-13T02:34:00;95068.09;;;15.83;64.22
1029;BME280;503;48.120;11.488;2022-09-13T02:36:28;95074.78;;;15.89;64.22
1029;BME280;503;48.120;11.488;2022-09-13T02:38:55;95071.00;;;15.90;63.90
1029;BME280;503;48.120;11.488;2022-09-13T02:44:08;95074.78;;;15.89;63.57
1029;BME280;503;48.120;11.488;2022-09-13T02:49:29;95071.69;;;15.87;63.31
1029;BME280;503;48.120;11.488;2022-09-13T02:51:59;95075.03;;;15.84;63.58
1029;BME280;503;48.120;11.488;2022-09-13T02:56:57;95078.84;;;15.83;63.53
1029;BME280;503;48.120;11.488;2022-09-13T02:59:24;95074.13;;;15.80;63.43
1029;BME280;503;48.120;11.488;2022-09-13T03:01:51;95068.66;;;15.76;63.79
1029;BME280;503;48.120;11.488;2022-09-13T03:04:20;95070.56;;;15.76;63.48
1029;BME280;503;48.120;11.488;2022-09-13T03:06:47;95064.78;;;15.74;63.60
1029;BME280;503;48.120;11.488;2022-09-13T03:09:13;95068.66;;;15.76;63.98
1029;BME280;503;48.120;11.488;2022-09-13T03:21:48;95085.56;;;15.77;63.73
1029;BME280;503;48.120;11.488;2022-09-13T03:24:29;95074.84;;;15.77;63.93
1029;BME280;503;48.120;11.488;2022-09-13T03:29:38;95068.22;;;15.74;63.50
1029;BME280;503;48.120;11.488;2022-09-13T03:42:06;95052.34;;;15.81;63.53
1029;BME280;503;48.120;11.488;2022-09-13T03:44:34;95049.88;;;15.76;63.84
1029;BME280;503;48.120;11.488;2022-09-13T03:47:02;95062.94;;;15.90;63.16
1029;BME280;503;48.120;11.488;2022-09-13T03:49:28;95071.25;;;15.73;63.45
1029;BME280;503;48.120;11.488;2022-09-13T03:51:53;95071.25;;;15.73;63.74
1029;BME280;503;48.120;11.488;2022-09-13T03:54:21;95073.00;;;15.93;63.25
1029;BME280;503;48.120;11.488;2022-09-13T03:59:32;95073.72;;;15.66;63.71
1029;BME280;503;48.120;11.488;2022-09-13T04:01:57;95077.50;;;15.65;63.89
1029;BME280;503;48.120;11.488;2022-09-13T04:04:22;95077.50;;;15.65;63.71
1029;BME280;503;48.120;11.488;2022-09-13T04:06:48;95071.84;;;15.66;63.83
1029;BME280;503;48.120;11.488;2022-09-13T04:09:13;95069.81;;;15.63;63.59
1029;BME280;503;48.120;11.488;2022-09-13T04:11:38;95067.13;;;15.63;63.70
1029;BME280;503;48.120;11.488;2022-09-13T04:14:05;95068.34;;;15.66;64.03
1029;BME280;503;48.120;11.488;2022-09-13T04:16:30;95066.13;;;15.68;63.83
1029;BME280;503;48.120;11.488;2022-09-13T04:18:55;95068.03;;;15.67;64.20
1029;BME280;503;48.120;11.488;2022-09-13T04:21:20;95068.03;;;15.67;64.03
1029;BME280;503;48.120;11.488;2022-09-13T04:23:48;95073.81;;;15.69;64.16
1029;BME280;503;48.120;11.488;2022-09-13T04:26:13;95067.03;;;15.72;64.11
1029;BME280;503;48.120;11.488;2022-09-13T04:28:39;95058.63;;;15.73;63.99
1029;BME280;503;48.120;11.488;2022-09-13T04:31:04;95061.84;;;15.79;64.05
1029;BME280;503;48.120;11.488;2022-09-13T04:33:29;95067.34;;;15.82;64.36
1029;BME280;503;48.120;11.488;2022-09-13T04:35:58;95061.19;;;15.82;64.20
1029;BME280;503;48.120;11.488;2022-09-13T04:38:24;95080.03;;;15.85;64.17
1029;BME280;503;48.120;11.488;2022-09-13T04:40:53;95075.56;;;15.90;64.39
1029;BME280;503;48.120;11.488;2022-09-13T04:43:18;95003.25;;;15.41;63.97
1029;BME280;503;48.120;11.488;2022-09-13T04:45:43;95067.97;;;15.92;63.84
1029;BME280;503;48.120;11.488;2022-09-13T04:48:09;95074.56;;;15.94;63.75
1029;BME280;503;48.120;11.488;2022-09-13T04:50:34;95072.31;;;15.96;63.75
1029;BME280;503;48.120;11.488;2022-09-13T04:53:00;95077.34;;;15.98;63.73
1029;BME280;503;48.120;11.488;2022-09-13T04:55:26;95082.38;;;15.99;63.80
1029;BME280;503;48.120;11.488;2022-09-13T04:57:52;95080.13;;;16.01;63.68
1029;BME280;503;48.120;11.488;2022-09-13T05:00:17;95084.16;;;16.07;63.74
1029;BME280;503;48.120;11.488;2022-09-13T05:02:42;95086.59;;;16.13;63.49
1029;BME280;503;48.120;11.488;2022-09-13T05:05:08;95092.16;;;16.20;63.28
1029;BME280;503;48.120;11.488;2022-09-13T05:07:33;95083.88;;;16.25;63.09
1029;BME280;503;48.120;11.488;2022-09-13T05:09:58;95084.75;;;16.29;63.36
1029;BME280;503;48.120;11.488;2022-09-13T05:12:23;95079.22;;;16.37;63.19
1029;BME280;503;48.120;11.488;2022-09-13T05:14:49;95079.59;;;16.52;63.02
1029;BME280;503;48.120;11.488;2022-09-13T05:17:14;95076.78;;;16.60;62.37
1029;BME280;503;48.120;11.488;2022-09-13T05:19:39;95078.88;;;16.67;62.02
1029;BME280;503;48.120;11.488;2022-09-13T05:22:04;95073.72;;;16.74;61.98
1029;BME280;503;48.120;11.488;2022-09-13T05:24:29;95081.19;;;16.81;61.72
1029;BME280;503;48.120;11.488;2022-09-13T05:26:55;95092.81;;;16.85;61.52
1029;BME280;503;48.120;11.488;2022-09-13T05:29:20;95099.47;;;16.91;61.67
1029;BME280;503;48.120;11.488;2022-09-13T05:31:45;95101.56;;;16.98;61.30
1029;BME280;503;48.120;11.488;2022-09-13T05:34:11;95096.28;;;17.01;61.10
1029;BME280;503;48.120;11.488;2022-09-13T05:36:37;95096.91;;;17.10;60.99
1029;BME280;503;48.120;11.488;2022-09-13T05:39:03;95081.47;;;17.07;61.00
1029;BME280;503;48.120;11.488;2022-09-13T05:41:28;95086.22;;;17.14;61.25
1029;BME280;503;48.120;11.488;2022-09-13T05:43:53;95077.22;;;17.22;60.96
1029;BME280;503;48.120;11.488;2022-09-13T05:46:19;95078.69;;;17.20;61.31
1029;BME280;503;48.120;11.488;2022-09-13T05:48:45;95087.44;;;17.32;61.16
1029;BME280;503;48.120;11.488;2022-09-13T05:51:12;95075.66;;;17.37;60.72
1029;BME280;503;48.120;11.488;2022-09-13T05:53:38;95082.41;;;17.47;60.36
1029;BME280;503;48.120;11.488;2022-09-13T05:56:04;95084.84;;;17.52;60.40
1029;BME280;503;48.120;11.488;2022-09-13T05:58:29;95079.59;;;17.59;59.96
1029;BME280;503;48.120;11.488;2022-09-13T06:00:55;95082.47;;;17.66;59.70
1029;BME280;503;48.120;11.488;2022-09-13T06:03:23;95086.44;;;17.72;59.86
1029;BME280;503;48.120;11.488;2022-09-13T06:05:48;95085.94;;;17.82;59.57
1029;BME280;503;48.120;11.488;2022-09-13T06:08:14;95089.63;;;17.93;59.26
1029;BME280;503;48.120;11.488;2022-09-13T06:10:40;95088.81;;;18.09;58.91
1029;BME280;503;48.120;11.488;2022-09-13T06:13:05;95084.78;;;18.18;58.89
1029;BME280;503;48.120;11.488;2022-09-13T06:15:30;95078.38;;;18.27;58.59
1029;BME280;503;48.120;11.488;2022-09-13T06:17:55;95086.25;;;18.35;58.29
1029;BME280;503;48.120;11.488;2022-09-13T06:20:21;95093.41;;;18.47;58.28
1029;BME280;503;48.120;11.488;2022-09-13T06:22:46;95095.41;;;18.50;57.99
1029;BME280;503;48.120;11.488;2022-09-13T06:25:12;95088.00;;;18.66;57.77
1029;BME280;503;48.120;11.488;2022-09-13T06:27:37;95088.19;;;18.74;57.65
1029;BME280;503;48.120;11.488;2022-09-13T06:30:02;95086.03;;;18.83;57.21
1029;BME280;503;48.120;11.488;2022-09-13T06:32:27;95081.63;;;18.94;57.05
1029;BME280;503;48.120;11.488;2022-09-13T06:34:52;95071.78;;;19.28;56.25
1029;BME280;503;48.120;11.488;2022-09-13T06:37:18;95074.78;;;19.46;55.95
1029;BME280;503;48.120;11.488;2022-09-13T06:39:43;95074.16;;;19.56;55.67
1029;BME280;503;48.120;11.488;2022-09-13T06:42:08;95080.16;;;19.69;55.17
1029;BME280;503;48.120;11.488;2022-09-13T06:44:34;95075.75;;;19.84;55.09
1029;BME280;503;48.120;11.488;2022-09-13T06:46:59;95080.72;;;19.82;55.36
1029;BME280;503;48.120;11.488;2022-09-13T06:49:24;95084.31;;;19.89;54.64
1029;BME280;503;48.120;11.488;2022-09-13T06:51:49;95079.81;;;20.00;54.62
1029;BME280;503;48.120;11.488;2022-09-13T06:54:14;95087.34;;;20.14;53.99
1029;BME280;503;48.120;11.488;2022-09-13T06:56:40;95082.06;;;20.25;53.59
1029;BME280;503;48.120;11.488;2022-09-13T06:59:05;95073.69;;;20.34;52.43
1029;BME280;503;48.120;11.488;2022-09-13T07:01:35;95078.94;;;20.49;52.50
1029;BME280;503;48.120;11.488;2022-09-13T07:04:02;95078.66;;;20.62;51.77
1029;BME280;503;48.120;11.488;2022-09-13T07:06:28;95067.31;;;20.83;51.70
1029;BME280;503;48.120;11.488;2022-09-13T07:08:54;95068.25;;;21.01;51.59
1029;BME280;503;48.120;11.488;2022-09-13T07:11:21;95068.44;;;21.22;51.54
1029;BME280;503;48.120;11.488;2022-09-13T07:13:56;95072.47;;;21.39;50.62
1029;BME280;503;48.120;11.488;2022-09-13T07:16:22;95070.38;;;21.66;50.58
1029;BME280;503;48.120;11.488;2022-09-13T07:18:51;95082.44;;;21.79;49.34
1029;BME280;503;48.120;11.488;2022-09-13T07:21:17;95088.28;;;21.82;48.08
1029;BME280;503;48.120;11.488;2022-09-13T07:23:42;95082.56;;;21.97;47.43
1029;BME280;503;48.120;11.488;2022-09-13T07:26:08;95070.41;;;22.39;47.72
1029;BME280;503;48.120;11.488;2022-09-13T07:28:37;95073.22;;;22.71;47.41
1029;BME280;503;48.120;11.488;2022-09-13T07:31:13;95075.22;;;22.92;46.04
1029;BME280;503;48.120;11.488;2022-09-13T07:33:39;95076.47;;;23.20;46.15
1029;BME280;503;48.120;11.488;2022-09-13T07:36:05;95069.47;;;23.44;45.95
1029;BME280;503;48.120;11.488;2022-09-13T07:38:32;95066.75;;;23.54;45.24
1029;BME280;503;48.120;11.488;2022-09-13T07:40:57;95065.59;;;23.70;44.90
1029;BME280;503;48.120;11.488;2022-09-13T07:43:24;95062.88;;;23.84;44.38
1029;BME280;503;48.120;11.488;2022-09-13T07:46:05;95068.25;;;24.09;44.38
1029;BME280;503;48.120;11.488;2022-09-13T07:48:32;95069.41;;;24.15;42.88
1029;BME280;503;48.120;11.488;2022-09-13T07:53:24;95085.25;;;24.49;42.22
1029;BME280;503;48.120;11.488;2022-09-13T07:55:49;95080.88;;;24.69;42.12
1029;BME280;503;48.120;11.488;2022-09-13T07:58:14;95081.94;;;24.86;41.21
1029;BME280;503;48.120;11.488;2022-09-13T08:00:39;95074.00;;;25.20;40.91
1029;BME280;503;48.120;11.488;2022-09-13T08:03:04;95066.34;;;25.53;40.26
1029;BME280;503;48.120;11.488;2022-09-13T08:05:30;95065.72;;;25.83;39.55
1029;BME280;503;48.120;11.488;2022-09-13T08:07:56;95074.63;;;25.38;39.10
1029;BME280;503;48.120;11.488;2022-09-13T08:10:21;95075.41;;;25.87;38.91
1029;BME280;503;48.120;11.488;2022-09-13T08:12:46;95081.75;;;24.45;38.11
1029;BME280;503;48.120;11.488;2022-09-13T08:15:12;95078.47;;;24.85;38.43
1029;BME280;503;48.120;11.488;2022-09-13T08:17:37;95076.41;;;25.04;37.45
1029;BME280;503;48.120;11.488;2022-09-13T08:20:02;95075.31;;;24.94;36.62
1029;BME280;503;48.120;11.488;2022-09-13T08:22:28;95078.44;;;25.52;37.38
1029;BME280;503;48.120;11.488;2022-09-13T08:24:53;95077.50;;;25.17;37.87
1029;BME280;503;48.120;11.488;2022-09-13T08:27:19;95074.84;;;24.04;39.67
1029;BME280;503;48.120;11.488;2022-09-13T08:29:44;95076.84;;;23.86;40.43
1029;BME280;503;48.120;11.488;2022-09-13T08:32:09;95071.47;;;24.84;39.30
1029;BME280;503;48.120;11.488;2022-09-13T08:34:34;95075.88;;;25.30;38.43
1029;BME280;503;48.120;11.488;2022-09-13T08:37:00;95074.06;;;25.06;39.05
1029;BME280;503;48.120;11.488;2022-09-13T08:39:25;95074.28;;;25.36;39.57
1029;BME280;503;48.120;11.488;2022-09-13T08:44:29;95089.41;;;24.71;39.72
1029;BME280;503;48.120;11.488;2022-09-13T08:47:08;95083.94;;;24.78;40.18
1029;BME280;503;48.120;11.488;2022-09-13T08:49:42;95081.06;;;25.14;40.03
1029;BME280;503;48.120;11.488;2022-09-13T08:54:40;95074.50;;;23.84;41.16
1029;BME280;503;48.120;11.488;2022-09-13T08:59:47;95072.47;;;25.19;38.91
1029;BME280;503;48.120;11.488;2022-09-13T09:07:58;95066.91;;;24.67;38.89
1029;BME280;503;48.120;11.488;2022-09-13T09:10:34;95058.34;;;25.35;38.05
1029;BME280;503;48.120;11.488;2022-09-13T09:13:08;95057.72;;;24.32;39.54
1029;BME280;503;48.120;11.488;2022-09-13T09:18:10;95064.44;;;23.74;39.20
1029;BME280;503;48.120;11.488;2022-09-13T09:20:45;95065.97;;;23.57;40.46
1029;BME280;503;48.120;11.488;2022-09-13T09:25:42;95073.19;;;24.46;40.41
1029;BME280;503;48.120;11.488;2022-09-13T09:28:11;95062.31;;;24.46;39.19
1029;BME280;503;48.120;11.488;2022-09-13T09:35:53;95055.34;;;24.31;40.21
1029;BME280;503;48.120;11.488;2022-09-13T09:38:35;95058.06;;;24.34;39.92
1029;BME280;503;48.120;11.488;2022-09-13T09:46:31;95056.72;;;24.82;39.38
1029;BME280;503;48.120;11.488;2022-09-13T09:49:11;95054.88;;;24.64;39.78
1029;BME280;503;48.120;11.488;2022-09-13T09:51:58;95055.22;;;24.70;39.26
1029;BME280;503;48.120;11.488;2022-09-13T09:54:24;95058.47;;;25.17;39.03
1029;BME280;503;48.120;11.488;2022-09-13T09:56:51;95051.25;;;24.82;39.36
1029;BME280;503;48.120;11.488;2022-09-13T09:59:35;95042.66;;;25.50;38.96
1029;BME280;503;48.120;11.488;2022-09-13T10:02:02;95032.22;;;25.41;39.53
1029;BME280;503;48.120;11.488;2022-09-13T10:04:35;95030.06;;;26.08;37.95
1029;BME280;503;48.120;11.488;2022-09-13T10:09:48;95028.44;;;25.28;38.06
1029;BME280;503;48.120;11.488;2022-09-13T10:12:24;95016.91;;;25.06;38.26
1029;BME280;503;48.120;11.488;2022-09-13T10:14:50;95007.91;;;25.20;37.91
1029;BME280;503;48.120;11.488;2022-09-13T10:17:23;95019.97;;;25.19;37.88
1029;BME280;503;48.120;11.488;2022-09-13T10:20:02;95020.59;;;25.33;37.66
1029;BME280;503;48.120;11.488;2022-09-13T10:22:28;95017.00;;;25.88;37.44
1029;BME280;503;48.120;11.488;2022-09-13T10:24:54;95015.44;;;25.50;38.00
1029;BME280;503;48.120;11.488;2022-09-13T10:27:31;95016.91;;;25.58;38.17
1029;BME280;503;48.120;11.488;2022-09-13T10:29:57;95011.63;;;26.19;36.74
1029;BME280;503;48.120;11.488;2022-09-13T10:32:25;95007.94;;;25.99;37.95
1029;BME280;503;48.120;11.488;2022-09-13T10:34:50;95011.56;;;25.88;37.94
1029;BME280;503;48.120;11.488;2022-09-13T10:39:54;95004.94;;;26.24;37.60
1029;BME280;503;48.120;11.488;2022-09-13T10:42:21;95002.28;;;25.82;38.18
1029;BME280;503;48.120;11.488;2022-09-13T10:44:54;95004.84;;;26.31;36.72
1029;BME280;503;48.120;11.488;2022-09-13T10:47:22;95004.06;;;26.91;36.08
1029;BME280;503;48.120;11.488;2022-09-13T10:49:49;94989.34;;;27.36;35.51
1029;BME280;503;48.120;11.488;2022-09-13T10:54:49;94991.13;;;27.23;35.26
1029;BME280;503;48.120;11.488;2022-09-13T10:57:33;94995.25;;;28.01;34.36
1029;BME280;503;48.120;11.488;2022-09-13T10:59:59;94990.19;;;28.19;34.25
1029;BME280;503;48.120;11.488;2022-09-13T11:04:58;94993.13;;;28.85;33.58
1029;BME280;503;48.120;11.488;2022-09-13T11:10:24;94984.69;;;29.44;32.13
1029;BME280;503;48.120;11.488;2022-09-13T11:18:09;94973.16;;;31.42;28.79
1029;BME280;503;48.120;11.488;2022-09-13T11:31:20;94969.53;;;31.80;26.89
1029;BME280;503;48.120;11.488;2022-09-13T11:36:43;94968.75;;;32.36;26.97
1029;BME280;503;48.120;11.488;2022-09-13T11:52:06;94990.31;;;29.99;28.77
1029;BME280;503;48.120;11.488;2022-09-13T11:57:18;94978.34;;;32.31;25.94
1029;BME280;503;48.120;11.488;2022-09-13T12:05:06;94984.81;;;29.86;29.90
1029;BME280;503;48.120;11.488;2022-09-13T12:07:44;94985.63;;;29.99;29.87
1029;BME280;503;48.120;11.488;2022-09-13T12:10:21;94985.81;;;29.92;29.88
1029;BME280;503;48.120;11.488;2022-09-13T12:12:47;94979.09;;;29.48;28.86
1029;BME280;503;48.120;11.488;2022-09-13T12:15:16;94978.50;;;29.73;29.34
1029;BME280;503;48.120;11.488;2022-09-13T12:17:44;94982.72;;;29.45;30.31
1029;BME280;503;48.120;11.488;2022-09-13T12:20:14;94981.28;;;29.24;30.51
1029;BME280;503;48.120;11.488;2022-09-13T12:22:41;94967.84;;;29.13;30.69
1029;BME280;503;48.120;11.488;2022-09-13T12:25:14;94977.38;;;28.36;31.51
1029;BME280;503;48.120;11.488;2022-09-13T12:27:47;94966.50;;;28.69;30.66
1029;BME280;503;48.120;11.488;2022-09-13T12:30:17;94965.88;;;28.97;30.46
1029;BME280;503;48.120;11.488;2022-09-13T12:32:43;94966.22;;;29.16;29.98
1029;BME280;503;48.120;11.488;2022-09-13T12:42:53;94960.50;;;28.58;31.88
1029;BME280;503;48.120;11.488;2022-09-13T12:45:34;94953.03;;;28.02;32.19
1029;BME280;503;48.120;11.488;2022-09-13T12:51:07;94944.38;;;28.23;32.06
1029;BME280;503;48.120;11.488;2022-09-13T13:01:32;94950.41;;;28.15;31.68
1029;BME280;503;48.120;11.488;2022-09-13T13:09:03;94950.78;;;28.17;30.74
1029;BME280;503;48.120;11.488;2022-09-13T13:11:39;94951.84;;;28.59;29.58
1029;BME280;503;48.120;11.488;2022-09-13T13:14:10;94954.56;;;29.12;29.64
1029;BME280;503;48.120;11.488;2022-09-13T13:16:49;94956.19;;;28.01;29.40
1029;BME280;503;48.120;11.488;2022-09-13T13:21:52;94956.88;;;28.44;30.27
1029;BME280;503;48.120;11.488;2022-09-13T13:31:40;94950.22;;;29.14;29.55
1029;BME280;503;48.120;11.488;2022-09-13T13:39:08;94929.97;;;28.75;30.62
1029;BME280;503;48.120;11.488;2022-09-13T13:41:37;94936.72;;;28.71;30.12
1029;BME280;503;48.120;11.488;2022-09-13T13:46:42;94943.00;;;28.88;30.26
1029;BME280;503;48.120;11.488;2022-09-13T13:54:31;94934.00;;;29.82;29.00
1029;BME280;503;48.120;11.488;2022-09-13T13:57:30;94932.03;;;30.11;28.66
1029;BME280;503;48.120;11.488;2022-09-13T14:10:36;94913.00;;;29.46;27.96
1029;BME280;503;48.120;11.488;2022-09-13T14:16:05;94909.66;;;29.84;27.88
1029;BME280;503;48.120;11.488;2022-09-13T14:18:49;94902.78;;;30.21;27.89
1029;BME280;503;48.120;11.488;2022-09-13T14:21:24;94904.00;;;30.71;27.48
1029;BME280;503;48.120;11.488;2022-09-13T14:23:50;94907.63;;;30.80;27.51
1029;BME280;503;48.120;11.488;2022-09-13T14:26:31;94893.81;;;31.31;28.05
1029;BME280;503;48.120;11.488;2022-09-13T14:28:56;94906.88;;;31.40;27.15
1029;BME280;503;48.120;11.488;2022-09-13T14:31:21;94908.25;;;31.10;27.02
1029;BME280;503;48.120;11.488;2022-09-13T14:33:46;94893.94;;;31.28;26.49
1029;BME280;503;48.120;11.488;2022-09-13T14:36:17;94904.41;;;31.90;26.20
1029;BME280;503;48.120;11.488;2022-09-13T14:39:00;94900.78;;;31.11;26.74
1029;BME280;503;48.120;11.488;2022-09-13T14:41:30;94896.06;;;31.46;26.67
1029;BME280;503;48.120;11.488;2022-09-13T14:44:12;94893.31;;;31.46;26.30
1029;BME280;503;48.120;11.488;2022-09-13T14:46:38;94894.81;;;31.60;26.45
1029;BME280;503;48.120;11.488;2022-09-13T14:49:07;94883.59;;;32.11;26.44
1029;BME280;503;48.120;11.488;2022-09-13T14:51:45;94877.59;;;31.81;25.52
1029;BME280;503;48.120;11.488;2022-09-13T14:54:18;94874.75;;;31.72;26.11
1029;BME280;503;48.120;11.488;2022-09-13T14:56:52;94881.94;;;32.22;25.84
1029;BME280;503;48.120;11.488;2022-09-13T14:59:31;94879.97;;;31.57;26.39
1029;BME280;503;48.120;11.488;2022-09-13T15:01:57;94878.44;;;31.78;26.09
1029;BME280;503;48.120;11.488;2022-09-13T15:04:23;94871.09;;;31.05;27.18
1029;BME280;503;48.120;11.488;2022-09-13T15:07:04;94873.38;;;30.47;27.77
1029;BME280;503;48.120;11.488;2022-09-13T15:09:29;94859.75;;;31.16;27.50
1029;BME280;503;48.120;11.488;2022-09-13T15:11:56;94855.69;;;31.34;27.33
1029;BME280;503;48.120;11.488;2022-09-13T15:14:29;94847.94;;;31.41;28.11
1029;BME280;503;48.120;11.488;2022-09-13T15:19:32;94852.97;;;31.43;27.58
1029;BME280;503;48.120;11.488;2022-09-13T15:22:13;94868.06;;;30.91;27.72
1029;BME280;503;48.120;11.488;2022-09-13T15:24:41;94862.41;;;30.72;28.06
1029;BME280;503;48.120;11.488;2022-09-13T15:27:15;94849.59;;;31.04;27.71
1029;BME280;503;48.120;11.488;2022-09-13T15:29:46;94854.91;;;31.33;27.57
1029;BME280;503;48.120;11.488;2022-09-13T15:32:18;94854.13;;;30.85;27.28
1029;BME280;503;48.120;11.488;2022-09-13T15:34:45;94841.09;;;30.76;26.58
1029;BME280;503;48.120;11.488;2022-09-13T15:37:11;94844.94;;;30.66;27.21
1029;BME280;503;48.120;11.488;2022-09-13T15:42:08;94834.91;;;31.20;27.41
1029;BME280;503;48.120;11.488;2022-09-13T15:44:33;94830.06;;;31.24;27.21
1029;BME280;503;48.120;11.488;2022-09-13T15:46:59;94834.81;;;31.23;27.75
1029;BME280;503;48.120;11.488;2022-09-13T15:49:29;94839.44;;;31.14;27.23
1029;BME280;503;48.120;11.488;2022-09-13T15:51:55;94829.91;;;31.05;27.44
1029;BME280;503;48.120;11.488;2022-09-13T15:54:21;94826.50;;;31.01;27.98
1029;BME280;503;48.120;11.488;2022-09-13T15:56:49;94821.25;;;30.94;28.56
1029;BME280;503;48.120;11.488;2022-09-13T15:59:19;94818.63;;;30.91;27.94
1029;BME280;503;48.120;11.488;2022-09-13T16:01:44;94816.13;;;30.84;27.94
1029;BME280;503;48.120;11.488;2022-09-13T16:04:11;94816.81;;;30.75;28.03
1029;BME280;503;48.120;11.488;2022-09-13T16:06:37;94812.75;;;30.67;27.54
1029;BME280;503;48.120;11.488;2022-09-13T16:09:16;94821.84;;;30.64;27.92
1029;BME280;503;48.120;11.488;2022-09-13T16:11:43;94828.22;;;30.61;28.39
1029;BME280;503;48.120;11.488;2022-09-13T16:14:08;94814.72;;;30.66;28.69
1029;BME280;503;48.120;11.488;2022-09-13T16:16:33;94810.44;;;30.78;28.53
1029;BME280;503;48.120;11.488;2022-09-13T16:18:58;94808.97;;;30.86;27.14
1029;BME280;503;48.120;11.488;2022-09-13T16:21:23;94807.13;;;30.83;27.47
1029;BME280;503;48.120;11.488;2022-09-13T16:23:49;94806.47;;;30.79;27.65
1029;BME280;503;48.120;11.488;2022-09-13T16:26:14;94802.94;;;30.66;27.35
1029;BME280;503;48.120;11.488;2022-09-13T16:28:39;94804.72;;;30.60;28.78
1029;BME280;503;48.120;11.488;2022-09-13T16:31:05;94806.38;;;30.57;28.56
1029;BME280;503;48.120;11.488;2022-09-13T16:33:30;94815.50;;;30.54;30.44
1029;BME280;503;48.120;11.488;2022-09-13T16:35:55;94815.38;;;30.45;30.88
1029;BME280;503;48.120;11.488;2022-09-13T16:38:21;94819.47;;;30.27;30.39
1029;BME280;503;48.120;11.488;2022-09-13T16:40:46;94812.63;;;30.07;30.44
1029;BME280;503;48.120;11.488;2022-09-13T16:43:12;94816.34;;;29.87;31.22
1029;BME280;503;48.120;11.488;2022-09-13T16:45:38;94814.22;;;29.66;31.04
1029;BME280;503;48.120;11.488;2022-09-13T16:48:04;94811.84;;;29.51;30.75
1029;BME280;503;48.120;11.488;2022-09-13T16:50:30;94815.44;;;29.36;30.35
1029;BME280;503;48.120;11.488;2022-09-13T16:52:55;94812.53;;;29.26;31.53
1029;BME280;503;48.120;11.488;2022-09-13T16:55:20;94810.09;;;29.16;32.61
1029;BME280;503;48.120;11.488;2022-09-13T16:57:45;94814.66;;;29.06;32.59
1029;BME280;503;48.120;11.488;2022-09-13T17:00:13;94817.22;;;28.97;32.85
1029;BME280;503;48.120;11.488;2022-09-13T17:02:39;94815.88;;;28.89;32.64
1029;BME280;503;48.120;11.488;2022-09-13T17:05:04;94817.34;;;28.77;32.37